createdAt,value
2023-02-14T00:00:26.852Z,15.70
2023-02-14T00:01:26.826Z,16.50
2023-02-14T00:02:26.823Z,16.10
2023-02-14T00:03:27.803Z,15.20
2023-02-14T00:04:26.845Z,16.70
2023-02-14T00:05:26.790Z,14.80
2023-02-14T00:06:26.785Z,21.20
2023-02-14T00:07:26.808Z,17.50
2023-02-14T00:08:26.760Z,17.60
2023-02-14T00:09:26.782Z,14.30
2023-02-14T00:10:26.753Z,16.50
2023-02-14T00:11:26.740Z,14.20
2023-02-14T00:12:26.734Z,14.50
2023-02-14T00:13:26.725Z,13.40
2023-02-14T00:14:26.745Z,14.60
2023-02-14T00:15:26.717Z,15.40
2023-02-14T00:16:26.769Z,13.50
2023-02-14T00:17:26.697Z,14.70
2023-02-14T00:18:26.696Z,14.40
2023-02-14T00:19:26.707Z,16.20
2023-02-14T00:20:26.671Z,16.20
2023-02-14T00:21:26.667Z,14.60
2023-02-14T00:22:26.664Z,14.00
2023-02-14T00:23:26.654Z,14.00
2023-02-14T00:24:26.672Z,15.60
2023-02-14T00:25:26.634Z,12.00
2023-02-14T00:26:26.629Z,16.30
2023-02-14T00:27:26.622Z,13.80
2023-02-14T00:28:26.612Z,18.00
2023-02-14T00:29:26.631Z,15.10
2023-02-14T00:30:26.661Z,15.50
2023-02-14T00:31:26.740Z,15.80
2023-02-14T00:32:26.580Z,14.60
2023-02-14T00:33:26.572Z,13.80
2023-02-14T00:34:26.590Z,15.30
2023-02-14T00:35:26.573Z,14.50
2023-02-14T00:36:26.558Z,15.70
2023-02-14T00:37:26.575Z,15.50
2023-02-14T00:38:26.548Z,13.60
2023-02-14T00:39:26.564Z,13.80
2023-02-14T00:40:26.530Z,16.40
2023-02-14T00:41:26.529Z,13.50
2023-02-14T00:42:26.513Z,15.00
2023-02-14T00:43:26.505Z,14.30
2023-02-14T00:44:26.519Z,13.90
2023-02-14T00:45:26.562Z,16.90
2023-02-14T00:46:26.492Z,19.10
2023-02-14T00:47:26.474Z,15.90
2023-02-14T00:48:26.492Z,16.50
2023-02-14T00:49:26.485Z,13.70
2023-02-14T00:50:26.465Z,17.40
2023-02-14T00:51:26.460Z,16.70
2023-02-14T00:52:26.438Z,16.20
2023-02-14T00:53:26.438Z,11.80
2023-02-14T00:54:26.462Z,16.30
2023-02-14T00:55:26.419Z,17.60
2023-02-14T00:56:26.425Z,12.60
2023-02-14T00:57:26.412Z,13.70
2023-02-14T00:58:26.394Z,15.70
2023-02-14T00:59:26.414Z,13.60
2023-02-14T01:00:26.380Z,13.70
2023-02-14T01:01:26.505Z,13.20
2023-02-14T01:02:26.439Z,15.50
2023-02-14T01:03:26.357Z,15.80
2023-02-14T01:04:26.392Z,15.20
2023-02-14T01:05:26.353Z,15.10
2023-02-14T01:06:26.339Z,17.90
2023-02-14T01:07:26.333Z,13.70
2023-02-14T01:08:26.320Z,13.80
2023-02-14T01:09:26.352Z,14.90
2023-02-14T01:10:26.314Z,14.60
2023-02-14T01:11:26.668Z,15.30
2023-02-14T01:12:26.294Z,16.10
2023-02-14T01:13:26.288Z,16.90
2023-02-14T01:14:26.277Z,15.50
2023-02-14T01:15:26.325Z,15.40
2023-02-14T01:16:26.362Z,17.20
2023-02-14T01:17:26.256Z,14.90
2023-02-14T01:18:26.251Z,17.40
2023-02-14T01:19:26.248Z,15.70
2023-02-14T01:20:26.260Z,14.60
2023-02-14T01:21:26.235Z,17.30
2023-02-14T01:22:26.223Z,18.90
2023-02-14T01:23:26.215Z,15.80
2023-02-14T01:24:26.206Z,17.50
2023-02-14T01:25:26.224Z,17.70
2023-02-14T01:26:26.199Z,14.30
2023-02-14T01:27:26.191Z,15.20
2023-02-14T01:28:26.179Z,14.10
2023-02-14T01:29:26.172Z,14.30
2023-02-14T01:30:26.269Z,16.20
2023-02-14T01:31:26.460Z,19.20
2023-02-14T01:32:26.143Z,17.50
2023-02-14T01:33:26.142Z,16.10
2023-02-14T01:34:26.138Z,16.70
2023-02-14T01:35:26.172Z,14.70
2023-02-14T01:36:26.116Z,16.10
2023-02-14T01:37:26.116Z,13.50
2023-02-14T01:38:26.106Z,16.00
2023-02-14T01:39:26.098Z,17.10
2023-02-14T01:40:26.117Z,15.20
2023-02-14T01:41:26.084Z,13.30
2023-02-14T01:42:26.077Z,17.00
2023-02-14T01:43:26.079Z,15.50
2023-02-14T01:44:26.069Z,14.50
2023-02-14T01:45:27.080Z,15.50
2023-02-14T01:46:26.072Z,15.30
2023-02-14T01:47:26.041Z,14.90
2023-02-14T01:48:26.041Z,15.60
2023-02-14T01:49:26.030Z,15.50
2023-02-14T01:50:26.056Z,17.90
2023-02-14T01:51:26.021Z,14.80
2023-02-14T01:52:26.011Z,15.00
2023-02-14T01:53:26.000Z,17.60
2023-02-14T01:54:26.006Z,17.30
2023-02-14T01:55:26.011Z,14.50
2023-02-14T01:56:25.978Z,14.60
2023-02-14T01:57:25.977Z,12.50
2023-02-14T01:58:25.967Z,15.50
2023-02-14T01:59:26.023Z,15.10
2023-02-14T02:00:25.977Z,14.80
2023-02-14T02:01:26.095Z,12.40
2023-02-14T02:02:25.986Z,12.00
2023-02-14T02:03:25.944Z,15.10
2023-02-14T02:04:25.930Z,15.00
2023-02-14T02:05:25.939Z,14.20
2023-02-14T02:06:25.907Z,12.60
2023-02-14T02:07:25.902Z,14.70
2023-02-14T02:08:25.891Z,13.30
2023-02-14T02:09:25.884Z,15.90
2023-02-14T02:10:25.906Z,13.40
2023-02-14T02:11:25.867Z,20.50
2023-02-14T02:12:25.865Z,13.30
2023-02-14T02:13:25.852Z,11.20
2023-02-14T02:14:25.845Z,13.90
2023-02-14T02:15:25.859Z,19.30
2023-02-14T02:16:25.860Z,15.00
2023-02-14T02:17:25.822Z,15.30
2023-02-14T02:18:25.809Z,16.70
2023-02-14T02:19:25.810Z,12.60
2023-02-14T02:20:25.829Z,16.20
2023-02-14T02:21:25.794Z,14.50
2023-02-14T02:22:25.782Z,12.80
2023-02-14T02:23:25.775Z,14.50
2023-02-14T02:24:25.786Z,14.90
2023-02-14T02:25:25.774Z,14.40
2023-02-14T02:26:26.766Z,16.00
2023-02-14T02:27:26.218Z,15.70
2023-02-14T02:28:26.741Z,16.20
2023-02-14T02:29:25.730Z,16.70
2023-02-14T02:30:25.840Z,15.10
2023-02-14T02:31:25.910Z,16.80
2023-02-14T02:32:25.707Z,20.00
2023-02-14T02:33:25.707Z,16.40
2023-02-14T02:34:25.694Z,17.10
2023-02-14T02:35:25.709Z,16.30
2023-02-14T02:36:25.681Z,15.70
2023-02-14T02:37:25.677Z,14.70
2023-02-14T02:38:25.667Z,14.50
2023-02-14T02:39:25.662Z,16.70
2023-02-14T02:40:25.688Z,16.20
2023-02-14T02:41:25.664Z,14.10
2023-02-14T02:42:25.653Z,14.90
2023-02-14T02:43:25.631Z,17.00
2023-02-14T02:44:25.625Z,17.30
2023-02-14T02:45:25.643Z,14.10
2023-02-14T02:46:25.667Z,17.40
2023-02-14T02:47:25.628Z,15.70
2023-02-14T02:48:25.593Z,13.50
2023-02-14T02:49:25.593Z,15.00
2023-02-14T02:50:25.576Z,13.80
2023-02-14T02:51:25.599Z,16.20
2023-02-14T02:52:25.567Z,13.90
2023-02-14T02:53:25.560Z,12.30
2023-02-14T02:54:25.555Z,13.80
2023-02-14T02:55:25.548Z,13.60
2023-02-14T02:56:25.569Z,14.30
2023-02-14T02:57:25.533Z,12.70
2023-02-14T02:58:25.529Z,14.30
2023-02-14T02:59:25.533Z,13.10
2023-02-14T03:00:25.509Z,13.50
2023-02-14T03:01:25.602Z,12.60
2023-02-14T03:02:25.491Z,13.30
2023-02-14T03:03:25.493Z,12.60
2023-02-14T03:04:25.565Z,13.60
2023-02-14T03:05:25.469Z,11.70
2023-02-14T03:06:25.484Z,14.90
2023-02-14T03:07:25.458Z,13.20
2023-02-14T03:08:25.481Z,13.90
2023-02-14T03:09:25.443Z,12.90
2023-02-14T03:10:25.446Z,13.00
2023-02-14T03:11:25.449Z,12.80
2023-02-14T03:12:25.430Z,14.20
2023-02-14T03:13:25.414Z,14.90
2023-02-14T03:14:25.405Z,14.50
2023-02-14T03:15:25.437Z,14.40
2023-02-14T03:16:25.420Z,13.20
2023-02-14T03:17:25.387Z,13.40
2023-02-14T03:18:25.372Z,14.50
2023-02-14T03:19:25.363Z,13.40
2023-02-14T03:20:25.357Z,13.50
2023-02-14T03:21:25.378Z,12.80
2023-02-14T03:22:25.346Z,11.90
2023-02-14T03:23:25.333Z,15.50
2023-02-14T03:24:25.335Z,15.00
2023-02-14T03:25:25.320Z,13.90
2023-02-14T03:26:25.341Z,17.20
2023-02-14T03:27:25.306Z,15.80
2023-02-14T03:28:25.310Z,25.10
2023-02-14T03:29:25.298Z,27.00
2023-02-14T03:30:25.360Z,28.30
2023-02-14T03:31:25.365Z,29.80
2023-02-14T03:32:25.272Z,33.70
2023-02-14T03:33:25.264Z,44.10
2023-02-14T03:34:25.254Z,59.00
2023-02-14T03:35:25.250Z,76.30
2023-02-14T03:36:25.267Z,96.20
2023-02-14T03:37:25.238Z,74.50
2023-02-14T03:38:25.228Z,73.20
2023-02-14T03:39:25.218Z,79.70
2023-02-14T03:40:25.215Z,78.60
2023-02-14T03:41:25.231Z,69.60
2023-02-14T03:42:25.194Z,81.10
2023-02-14T03:43:25.191Z,99.40
2023-02-14T03:44:25.183Z,62.40
2023-02-14T03:45:25.218Z,53.30
2023-02-14T03:46:25.246Z,41.30
2023-02-14T03:47:25.162Z,69.90
2023-02-14T03:48:25.155Z,49.60
2023-02-14T03:49:25.147Z,48.90
2023-02-14T03:50:25.142Z,44.50
2023-02-14T03:51:25.160Z,39.60
2023-02-14T03:52:25.121Z,51.20
2023-02-14T03:53:25.116Z,42.30
2023-02-14T03:54:25.106Z,35.60
2023-02-14T03:55:25.089Z,34.80
2023-02-14T03:56:26.122Z,33.30
2023-02-14T03:57:25.090Z,34.70
2023-02-14T03:58:25.080Z,33.80
2023-02-14T03:59:25.068Z,47.20
2023-02-14T04:00:25.064Z,32.50
2023-02-14T04:01:25.073Z,39.70
2023-02-14T04:02:25.079Z,34.90
2023-02-14T04:03:25.107Z,32.80
2023-02-14T04:04:25.036Z,32.70
2023-02-14T04:05:25.024Z,31.40
2023-02-14T04:06:25.022Z,30.60
2023-02-14T04:07:25.039Z,25.60
2023-02-14T04:08:25.007Z,31.50
2023-02-14T04:09:24.999Z,29.80
2023-02-14T04:10:24.988Z,33.40
2023-02-14T04:11:24.989Z,30.20
2023-02-14T04:12:37.082Z,36.70
2023-02-14T04:13:26.967Z,44.10
2023-02-14T04:14:24.963Z,52.20
2023-02-14T04:15:24.952Z,69.70
2023-02-14T04:16:24.970Z,69.10
2023-02-14T04:17:24.967Z,78.50
2023-02-14T04:18:24.928Z,59.70
2023-02-14T04:19:24.930Z,57.20
2023-02-14T04:20:24.986Z,70.90
2023-02-14T04:21:25.174Z,62.50
2023-02-14T04:22:24.921Z,56.90
2023-02-14T04:23:24.889Z,72.00
2023-02-14T04:24:24.885Z,90.60
2023-02-14T04:25:24.873Z,120.50
2023-02-14T04:26:24.879Z,105.40
2023-02-14T04:27:24.889Z,66.20
2023-02-14T04:28:24.854Z,80.80
2023-02-14T04:29:24.845Z,68.70
2023-02-14T04:30:24.881Z,59.90
2023-02-14T04:31:24.933Z,48.10
2023-02-14T04:32:24.931Z,67.80
2023-02-14T04:33:24.818Z,55.40
2023-02-14T04:34:24.815Z,79.60
2023-02-14T04:35:24.809Z,51.40
2023-02-14T04:36:24.800Z,62.30
2023-02-14T04:37:24.811Z,74.30
2023-02-14T04:38:24.779Z,70.40
2023-02-14T04:39:24.773Z,67.90
2023-02-14T04:40:24.762Z,48.30
2023-02-14T04:41:24.756Z,55.60
2023-02-14T04:42:24.776Z,35.40
2023-02-14T04:43:24.750Z,75.20
2023-02-14T04:44:24.728Z,61.40
2023-02-14T04:45:24.720Z,61.20
2023-02-14T04:46:24.774Z,114.70
2023-02-14T04:47:24.736Z,63.70
2023-02-14T04:48:24.716Z,136.50
2023-02-14T04:49:24.696Z,70.90
2023-02-14T04:50:24.681Z,71.30
2023-02-14T04:51:27.291Z,95.90
2023-02-14T04:52:24.706Z,55.80
2023-02-14T04:53:24.683Z,63.00
2023-02-14T04:54:24.655Z,119.70
2023-02-14T04:55:24.653Z,129.60
2023-02-14T04:56:24.643Z,119.80
2023-02-14T04:57:24.634Z,91.90
2023-02-14T04:58:24.655Z,73.70
2023-02-14T04:59:25.159Z,65.00
2023-02-14T05:00:25.663Z,67.20
2023-02-14T05:01:24.609Z,117.70
2023-02-14T05:02:24.722Z,75.40
2023-02-14T05:03:24.615Z,74.80
2023-02-14T05:04:24.586Z,103.60
2023-02-14T05:05:24.576Z,119.10
2023-02-14T05:06:24.575Z,114.30
2023-02-14T05:07:24.576Z,146.00
2023-02-14T05:08:24.585Z,172.40
2023-02-14T05:09:24.547Z,155.20
2023-02-14T05:10:24.536Z,143.00
2023-02-14T05:11:24.536Z,186.20
2023-02-14T05:12:24.527Z,149.00
2023-02-14T05:13:24.551Z,92.10
2023-02-14T05:14:24.514Z,67.10
2023-02-14T05:15:24.503Z,124.20
2023-02-14T05:16:24.546Z,84.70
2023-02-14T05:17:24.505Z,57.50
2023-02-14T05:18:24.502Z,85.30
2023-02-14T05:19:24.476Z,105.40
2023-02-14T05:20:24.465Z,97.00
2023-02-14T05:21:24.461Z,90.00
2023-02-14T05:22:24.449Z,74.50
2023-02-14T05:23:24.470Z,76.40
2023-02-14T05:24:24.435Z,73.60
2023-02-14T05:25:24.425Z,106.80
2023-02-14T05:26:24.417Z,125.70
2023-02-14T05:27:24.411Z,74.90
2023-02-14T05:28:24.434Z,68.40
2023-02-14T05:29:24.397Z,78.60
2023-02-14T05:30:24.560Z,71.30
2023-02-14T05:31:24.534Z,65.20
2023-02-14T05:32:24.385Z,55.20
2023-02-14T05:33:24.397Z,67.10
2023-02-14T05:34:24.365Z,61.40
2023-02-14T05:35:24.378Z,81.00
2023-02-14T05:36:24.357Z,70.60
2023-02-14T05:37:24.338Z,90.30
2023-02-14T05:38:24.354Z,111.60
2023-02-14T05:39:25.327Z,85.00
2023-02-14T05:41:09.512Z,72.60
2023-02-14T05:42:09.533Z,70.40
2023-02-14T05:43:09.556Z,100.50
2023-02-14T05:44:09.515Z,115.90
2023-02-14T05:45:09.514Z,98.50
2023-02-14T05:46:09.518Z,65.40
2023-02-14T05:47:10.586Z,71.60
2023-02-14T05:48:09.487Z,83.40
2023-02-14T05:49:09.525Z,85.90
2023-02-14T05:50:09.482Z,79.90
2023-02-14T05:51:09.465Z,102.80
2023-02-14T05:52:09.456Z,96.70
2023-02-14T05:53:09.502Z,95.90
2023-02-14T05:54:11.038Z,111.00
2023-02-14T05:55:09.438Z,95.80
2023-02-14T05:56:09.434Z,119.00
2023-02-14T05:57:09.424Z,70.20
2023-02-14T05:58:09.421Z,101.00
2023-02-14T05:59:09.436Z,105.30
2023-02-14T06:00:09.395Z,87.70
2023-02-14T06:01:09.410Z,97.20
2023-02-14T06:02:09.456Z,64.50
2023-02-14T06:03:09.388Z,62.10
2023-02-14T06:04:09.435Z,93.20
2023-02-14T06:05:09.360Z,68.80
2023-02-14T06:06:09.349Z,63.20
2023-02-14T06:07:09.358Z,95.80
2023-02-14T06:08:09.332Z,77.10
2023-02-14T06:09:09.365Z,82.10
2023-02-14T06:10:09.330Z,69.70
2023-02-14T06:11:09.312Z,91.30
2023-02-14T06:12:09.321Z,87.50
2023-02-14T06:13:09.309Z,88.70
2023-02-14T06:14:09.323Z,104.80
2023-02-14T06:15:09.281Z,92.60
2023-02-14T06:16:10.456Z,71.70
2023-02-14T06:17:10.413Z,127.90
2023-02-14T06:18:10.428Z,104.40
2023-02-14T06:19:10.422Z,118.50
2023-02-14T06:20:10.383Z,179.60
2023-02-14T06:21:10.373Z,156.00
2023-02-14T06:22:10.430Z,90.30
2023-02-14T06:23:10.374Z,82.00
2023-02-14T06:24:10.418Z,71.60
2023-02-14T06:25:10.376Z,128.20
2023-02-14T06:26:10.345Z,96.20
2023-02-14T06:27:10.420Z,86.30
2023-02-14T06:28:10.325Z,78.60
2023-02-14T06:29:10.347Z,69.70
2023-02-14T06:30:10.379Z,103.00
2023-02-14T06:31:10.447Z,111.60
2023-02-14T06:32:10.405Z,89.60
2023-02-14T06:33:10.296Z,83.70
2023-02-14T06:34:10.311Z,70.90
2023-02-14T06:35:10.289Z,83.70
2023-02-14T06:36:10.272Z,104.00
2023-02-14T06:37:10.268Z,89.10
2023-02-14T06:38:10.257Z,90.90
2023-02-14T06:39:10.285Z,92.10
2023-02-14T06:40:10.238Z,93.00
2023-02-14T06:41:11.232Z,112.80
2023-02-14T06:42:10.229Z,95.70
2023-02-14T06:43:10.219Z,159.00
2023-02-14T06:44:10.231Z,159.90
2023-02-14T06:45:10.225Z,103.30
2023-02-14T06:46:10.290Z,138.10
2023-02-14T06:47:10.189Z,49.30
2023-02-14T06:48:10.184Z,79.80
2023-02-14T06:49:10.195Z,99.30
2023-02-14T06:50:10.185Z,80.60
2023-02-14T06:51:10.157Z,123.30
2023-02-14T06:52:10.149Z,208.00
2023-02-14T06:53:10.140Z,136.00
2023-02-14T06:54:10.137Z,72.20
2023-02-14T06:55:10.155Z,112.50
2023-02-14T06:56:10.114Z,118.20
2023-02-14T06:57:10.113Z,203.80
2023-02-14T06:58:10.104Z,175.90
2023-02-14T06:59:10.091Z,196.50
2023-02-14T07:00:10.290Z,139.50
2023-02-14T07:01:10.115Z,188.40
2023-02-14T07:02:10.083Z,133.70
2023-02-14T07:03:10.080Z,102.60
2023-02-14T07:04:10.057Z,129.80
2023-02-14T07:05:10.072Z,117.80
2023-02-14T07:06:10.037Z,86.90
2023-02-14T07:07:10.034Z,111.70
2023-02-14T07:08:10.020Z,136.30
2023-02-14T07:09:10.014Z,115.00
2023-02-14T07:10:10.034Z,106.10
2023-02-14T07:11:10.001Z,119.50
2023-02-14T07:12:09.992Z,109.50
2023-02-14T07:13:10.000Z,70.10
2023-02-14T07:14:09.980Z,51.20
2023-02-14T07:15:09.994Z,76.50
2023-02-14T07:16:10.006Z,77.10
2023-02-14T07:17:09.953Z,68.70
2023-02-14T07:18:09.953Z,68.90
2023-02-14T07:19:09.943Z,50.00
2023-02-14T07:20:09.957Z,66.10
2023-02-14T07:21:09.931Z,67.00
2023-02-14T07:22:09.925Z,56.90
2023-02-14T07:23:09.918Z,69.00
2023-02-14T07:24:09.904Z,53.60
2023-02-14T07:25:09.926Z,49.30
2023-02-14T07:26:09.894Z,64.60
2023-02-14T07:27:09.890Z,48.00
2023-02-14T07:28:09.878Z,73.00
2023-02-14T07:29:09.865Z,72.60
2023-02-14T07:30:09.962Z,51.90
2023-02-14T07:31:09.949Z,65.50
2023-02-14T07:32:09.951Z,52.00
2023-02-14T07:33:09.844Z,52.30
2023-02-14T07:34:09.845Z,43.70
2023-02-14T07:35:09.858Z,50.20
2023-02-14T07:36:09.812Z,96.00
2023-02-14T07:37:09.805Z,98.20
2023-02-14T07:38:09.797Z,110.00
2023-02-14T07:39:09.790Z,70.50
2023-02-14T07:40:14.727Z,80.60
2023-02-14T07:41:11.775Z,95.90
2023-02-14T07:42:09.770Z,82.70
2023-02-14T07:43:09.763Z,98.60
2023-02-14T07:44:09.767Z,86.10
2023-02-14T07:45:21.276Z,100.60
2023-02-14T07:46:11.745Z,168.70
2023-02-14T07:47:09.731Z,77.00
2023-02-14T07:48:09.733Z,113.80
2023-02-14T07:49:09.711Z,134.80
2023-02-14T07:50:09.729Z,156.00
2023-02-14T07:51:09.691Z,159.70
2023-02-14T07:52:09.686Z,128.90
2023-02-14T07:53:09.699Z,177.10
2023-02-14T07:54:09.677Z,174.10
2023-02-14T07:55:09.691Z,115.80
2023-02-14T07:56:09.653Z,84.40
2023-02-14T07:57:09.650Z,97.40
2023-02-14T07:58:09.638Z,147.90
2023-02-14T07:59:09.637Z,143.50
2023-02-14T08:00:09.675Z,200.40
2023-02-14T08:01:09.649Z,158.40
2023-02-14T08:02:09.606Z,167.80
2023-02-14T08:03:09.600Z,133.60
2023-02-14T08:04:09.592Z,208.00
2023-02-14T08:05:09.634Z,121.20
2023-02-14T08:06:09.908Z,83.40
2023-02-14T08:07:09.577Z,89.50
2023-02-14T08:08:09.571Z,182.50
2023-02-14T08:09:09.554Z,216.90
2023-02-14T08:10:12.001Z,106.60
2023-02-14T08:11:09.565Z,95.10
2023-02-14T08:12:09.530Z,116.40
2023-02-14T08:13:09.522Z,97.10
2023-02-14T08:14:09.516Z,140.20
2023-02-14T08:15:09.507Z,76.40
2023-02-14T08:16:09.749Z,161.90
2023-02-14T08:17:09.490Z,93.60
2023-02-14T08:18:09.478Z,183.00
2023-02-14T08:19:09.476Z,105.30
2023-02-14T08:20:09.473Z,121.20
2023-02-14T08:21:09.502Z,74.60
2023-02-14T08:22:09.488Z,68.50
2023-02-14T08:23:09.443Z,98.50
2023-02-14T08:24:09.438Z,57.90
2023-02-14T08:25:09.427Z,82.20
2023-02-14T08:26:09.465Z,98.10
2023-02-14T08:27:09.418Z,124.50
2023-02-14T08:28:09.409Z,93.30
2023-02-14T08:29:09.401Z,59.50
2023-02-14T08:30:09.441Z,68.90
2023-02-14T08:31:09.453Z,96.60
2023-02-14T08:32:09.474Z,63.40
2023-02-14T08:33:09.358Z,58.00
2023-02-14T08:34:09.357Z,62.00
2023-02-14T08:35:09.348Z,51.30
2023-02-14T08:36:09.364Z,51.10
2023-02-14T08:37:09.332Z,39.40
2023-02-14T08:38:09.319Z,28.70
2023-02-14T08:39:09.312Z,25.90
2023-02-14T08:40:09.306Z,24.30
2023-02-14T08:41:09.701Z,24.20
2023-02-14T08:42:09.291Z,35.30
2023-02-14T08:43:09.281Z,20.80
2023-02-14T08:44:09.289Z,31.20
2023-02-14T08:45:09.297Z,32.20
2023-02-14T08:46:09.288Z,31.60
2023-02-14T08:47:09.324Z,31.90
2023-02-14T08:48:09.322Z,76.00
2023-02-14T08:49:09.240Z,110.40
2023-02-14T08:50:09.232Z,32.10
2023-02-14T08:51:09.257Z,45.10
2023-02-14T08:52:09.216Z,28.90
2023-02-14T08:53:09.197Z,34.60
2023-02-14T08:54:09.230Z,34.30
2023-02-14T08:55:09.188Z,47.20
2023-02-14T08:56:09.210Z,33.10
2023-02-14T08:57:09.169Z,34.90
2023-02-14T08:58:09.156Z,54.10
2023-02-14T08:59:09.166Z,44.20
2023-02-14T09:00:09.158Z,41.70
2023-02-14T09:01:09.205Z,38.00
2023-02-14T09:02:09.130Z,30.10
2023-02-14T09:03:09.116Z,26.30
2023-02-14T09:04:09.252Z,22.90
2023-02-14T09:05:09.104Z,23.90
2023-02-14T09:06:09.151Z,23.70
2023-02-14T09:07:09.084Z,26.30
2023-02-14T09:08:09.099Z,26.60
2023-02-14T09:09:09.092Z,37.30
2023-02-14T09:10:09.113Z,67.00
2023-02-14T09:11:09.074Z,32.60
2023-02-14T09:12:09.090Z,41.70
2023-02-14T09:13:09.042Z,23.90
2023-02-14T09:14:09.029Z,24.10
2023-02-14T09:15:10.054Z,24.00
2023-02-14T09:16:09.057Z,39.70
2023-02-14T09:17:09.042Z,28.60
2023-02-14T09:18:09.004Z,30.90
2023-02-14T09:19:09.030Z,30.70
2023-02-14T09:20:09.005Z,26.40
2023-02-14T09:21:08.976Z,27.70
2023-02-14T09:22:08.996Z,25.00
2023-02-14T09:23:08.962Z,25.20
2023-02-14T09:24:08.953Z,30.00
2023-02-14T09:25:08.954Z,43.40
2023-02-14T09:26:08.949Z,31.80
2023-02-14T09:27:08.959Z,24.70
2023-02-14T09:28:08.927Z,19.70
2023-02-14T09:29:08.917Z,26.20
2023-02-14T09:30:08.931Z,28.10
2023-02-14T09:31:09.042Z,25.80
2023-02-14T09:32:09.028Z,27.50
2023-02-14T09:33:08.894Z,24.70
2023-02-14T09:34:08.901Z,22.80
2023-02-14T09:35:08.886Z,31.80
2023-02-14T09:36:08.864Z,25.20
2023-02-14T09:37:08.886Z,20.30
2023-02-14T09:38:08.851Z,21.80
2023-02-14T09:39:08.841Z,18.90
2023-02-14T09:40:08.840Z,24.20
2023-02-14T09:41:08.828Z,44.60
2023-02-14T09:42:08.845Z,51.50
2023-02-14T09:43:08.810Z,32.40
2023-02-14T09:44:08.805Z,29.20
2023-02-14T09:45:08.820Z,24.90
2023-02-14T09:46:08.858Z,26.10
2023-02-14T09:47:08.810Z,21.90
2023-02-14T09:48:08.772Z,17.70
2023-02-14T09:49:08.836Z,26.70
2023-02-14T09:50:08.806Z,19.20
2023-02-14T09:51:08.751Z,21.50
2023-02-14T09:52:08.781Z,25.00
2023-02-14T09:53:08.745Z,26.80
2023-02-14T09:54:08.727Z,25.00
2023-02-14T09:55:08.730Z,18.60
2023-02-14T09:56:08.725Z,20.30
2023-02-14T09:57:08.741Z,20.80
2023-02-14T09:58:08.708Z,19.10
2023-02-14T09:59:08.699Z,22.90
2023-02-14T10:00:08.686Z,21.90
2023-02-14T10:01:08.743Z,22.60
2023-02-14T10:02:08.706Z,23.40
2023-02-14T10:03:08.666Z,28.60
2023-02-14T10:04:08.667Z,24.50
2023-02-14T10:05:08.653Z,19.60
2023-02-14T10:06:08.648Z,21.50
2023-02-14T10:07:08.662Z,20.80
2023-02-14T10:08:08.626Z,22.30
2023-02-14T10:09:08.631Z,17.90
2023-02-14T10:10:08.620Z,20.20
2023-02-14T10:11:08.608Z,16.20
2023-02-14T10:12:08.625Z,17.70
2023-02-14T10:13:08.596Z,19.50
2023-02-14T10:14:08.588Z,19.50
2023-02-14T10:15:08.578Z,19.10
2023-02-14T10:16:08.601Z,17.90
2023-02-14T10:17:08.585Z,20.20
2023-02-14T10:18:08.549Z,18.30
2023-02-14T10:19:08.544Z,18.40
2023-02-14T10:20:08.554Z,19.40
2023-02-14T10:21:08.540Z,17.80
2023-02-14T10:22:08.823Z,16.80
2023-02-14T10:23:08.511Z,16.10
2023-02-14T10:24:08.519Z,16.60
2023-02-14T10:25:08.500Z,14.90
2023-02-14T10:26:08.493Z,16.90
2023-02-14T10:27:10.169Z,21.30
2023-02-14T10:28:09.476Z,19.20
2023-02-14T10:29:08.469Z,16.40
2023-02-14T10:30:08.503Z,19.40
2023-02-14T10:31:08.491Z,19.10
2023-02-14T10:32:08.520Z,17.20
2023-02-14T10:33:08.476Z,17.60
2023-02-14T10:34:08.443Z,19.30
2023-02-14T10:35:08.424Z,20.60
2023-02-14T10:36:08.463Z,17.80
2023-02-14T10:37:08.415Z,17.50
2023-02-14T10:38:08.426Z,18.40
2023-02-14T10:39:08.397Z,17.90
2023-02-14T10:40:08.432Z,18.90
2023-02-14T10:41:08.384Z,17.40
2023-02-14T10:42:08.370Z,18.60
2023-02-14T10:43:08.409Z,15.70
2023-02-14T10:44:08.375Z,15.40
2023-02-14T10:45:08.351Z,16.60
2023-02-14T10:46:08.434Z,15.20
2023-02-14T10:47:08.336Z,17.90
2023-02-14T10:48:08.352Z,17.90
2023-02-14T10:49:08.314Z,16.90
2023-02-14T10:50:08.338Z,17.40
2023-02-14T10:51:08.301Z,16.60
2023-02-14T10:52:08.359Z,17.30
2023-02-14T10:53:08.315Z,16.40
2023-02-14T10:54:08.281Z,16.30
2023-02-14T10:55:08.314Z,16.80
2023-02-14T10:56:08.260Z,18.70
2023-02-14T10:57:08.257Z,19.50
2023-02-14T10:58:08.276Z,18.30
2023-02-14T10:59:08.235Z,16.70
2023-02-14T11:00:08.229Z,19.10
2023-02-14T11:01:08.270Z,19.00
2023-02-14T11:02:08.220Z,18.00
2023-02-14T11:03:08.285Z,16.20
2023-02-14T11:04:08.209Z,16.10
2023-02-14T11:05:08.206Z,17.90
2023-02-14T11:06:08.194Z,15.90
2023-02-14T11:07:08.190Z,16.50
2023-02-14T11:08:08.192Z,15.40
2023-02-14T11:09:08.165Z,15.00
2023-02-14T11:10:08.151Z,17.60
2023-02-14T11:11:08.151Z,17.60
2023-02-14T11:12:09.141Z,15.60
2023-02-14T11:13:08.159Z,15.50
2023-02-14T11:14:08.120Z,16.30
2023-02-14T11:15:08.116Z,16.90
2023-02-14T11:16:08.129Z,15.60
2023-02-14T11:17:08.097Z,16.80
2023-02-14T11:18:08.113Z,15.70
2023-02-14T11:19:08.074Z,16.50
2023-02-14T11:20:08.071Z,16.60
2023-02-14T11:21:08.069Z,17.10
2023-02-14T11:22:08.054Z,16.80
2023-02-14T11:23:08.074Z,16.60
2023-02-14T11:24:08.048Z,15.80
2023-02-14T11:25:08.046Z,15.40
2023-02-14T11:26:08.025Z,15.10
2023-02-14T11:27:08.019Z,16.60
2023-02-14T11:28:08.048Z,17.00
2023-02-14T11:29:08.004Z,14.80
2023-02-14T11:30:08.037Z,15.90
2023-02-14T11:31:08.140Z,14.40
2023-02-14T11:32:07.991Z,15.20
2023-02-14T11:33:07.998Z,15.40
2023-02-14T11:34:07.984Z,14.70
2023-02-14T11:35:07.961Z,14.70
2023-02-14T11:36:07.961Z,13.70
2023-02-14T11:37:07.942Z,13.90
2023-02-14T11:38:07.958Z,18.20
2023-02-14T11:39:07.928Z,12.80
2023-02-14T11:40:07.933Z,13.40
2023-02-14T11:41:07.933Z,14.40
2023-02-14T11:42:07.913Z,13.10
2023-02-14T11:43:13.948Z,14.50
2023-02-14T11:44:09.892Z,13.10
2023-02-14T11:45:07.895Z,11.40
2023-02-14T11:46:07.925Z,13.60
2023-02-14T11:47:08.603Z,13.50
2023-02-14T11:48:08.894Z,13.40
2023-02-14T11:49:07.852Z,12.50
2023-02-14T11:50:07.908Z,13.90
2023-02-14T11:51:07.844Z,14.20
2023-02-14T11:52:10.101Z,14.10
2023-02-14T11:53:07.848Z,15.30
2023-02-14T11:54:07.819Z,14.60
2023-02-14T11:55:07.809Z,15.30
2023-02-14T11:56:07.795Z,12.30
2023-02-14T11:57:07.789Z,16.00
2023-02-14T11:58:07.782Z,14.70
2023-02-14T11:59:07.798Z,14.30
2023-02-14T12:00:07.807Z,14.00
2023-02-14T12:01:07.761Z,14.30
2023-02-14T12:02:07.765Z,14.90
2023-02-14T12:03:07.743Z,13.40
2023-02-14T12:04:07.764Z,14.10
2023-02-14T12:05:07.737Z,14.60
2023-02-14T12:06:07.726Z,14.80
2023-02-14T12:07:07.715Z,13.20
2023-02-14T12:08:07.717Z,14.30
2023-02-14T12:09:07.727Z,16.70
2023-02-14T12:10:07.694Z,13.60
2023-02-14T12:11:07.693Z,14.30
2023-02-14T12:12:07.689Z,13.90
2023-02-14T12:13:07.684Z,13.80
2023-02-14T12:14:07.690Z,14.70
2023-02-14T12:15:07.658Z,14.90
2023-02-14T12:16:07.674Z,14.30
2023-02-14T12:17:07.644Z,14.50
2023-02-14T12:18:07.634Z,14.80
2023-02-14T12:19:07.650Z,14.60
2023-02-14T12:20:07.616Z,13.60
2023-02-14T12:21:07.607Z,14.20
2023-02-14T12:22:07.608Z,14.00
2023-02-14T12:23:07.591Z,15.20
2023-02-14T12:24:07.684Z,16.40
2023-02-14T12:25:07.593Z,15.00
2023-02-14T12:26:07.574Z,16.40
2023-02-14T12:27:07.564Z,13.80
2023-02-14T12:28:07.566Z,13.60
2023-02-14T12:29:07.567Z,16.10
2023-02-14T12:30:07.574Z,15.80
2023-02-14T12:31:07.639Z,14.20
2023-02-14T12:32:07.608Z,13.80
2023-02-14T12:33:07.509Z,15.10
2023-02-14T12:34:07.527Z,14.90
2023-02-14T12:35:07.493Z,13.50
2023-02-14T12:36:07.482Z,12.30
2023-02-14T12:37:07.474Z,13.20
2023-02-14T12:38:07.947Z,16.30
2023-02-14T12:39:07.489Z,13.80
2023-02-14T12:40:07.450Z,15.20
2023-02-14T12:41:07.441Z,14.30
2023-02-14T12:42:07.440Z,13.60
2023-02-14T12:43:07.428Z,13.70
2023-02-14T12:44:07.444Z,13.70
2023-02-14T12:45:07.413Z,15.80
2023-02-14T12:46:07.560Z,15.10
2023-02-14T12:47:07.398Z,14.10
2023-02-14T12:48:07.392Z,14.90
2023-02-14T12:49:07.415Z,15.80
2023-02-14T12:50:07.376Z,14.80